Nearby METAR Reports

 

EGNV - Tees-Side, United Kingdom
Distance from station: W 8mi, 13km
Updated: 23/05/2018 07:50
Mostly cloudy
Mostly cloudy
 Wind from N
Wind: N 12 mph , 19 km/h
Temperature: 10°C
Wind Chill: 7°C
Dew Point: 7°C
Humidity: 82%
Barometer: 1027 hPa
Clouds: Mostly cloudy
Visibility: 6 miles , 10 km
Cloud details: Few Clouds 427 m
Mostly cloudy 488 m
2018/05/23 06:50 EGNV 230650Z 01010KT 9999 FEW014 BKN016 10/07 Q1027
EGXE - Leeming Raf, United Kingdom
Distance from station: SW 21mi, 34km
Updated: 23/05/2018 07:50
Overcast
Overcast
 Wind from N
Wind: N 10 mph , 17 km/h
Temperature: 10°C
Wind Chill: 8°C
Dew Point: 7°C
Humidity: 82%
Barometer: 1027 hPa
Clouds: Overcast
Visibility: 6 miles , 10 km
Cloud details: Overcast 396 m
2018/05/23 06:50 EGXE 230650Z 36009KT 9999 OVC013 10/07 Q1027 GRN NOSIG
 
EGXZ - Topcliffe Raf, United Kingdom
Distance from station: SSW 24mi, 38km
Updated: 23/05/2018 07:50
Overcast
Overcast
 Wind from N
Wind: N 12 mph , 19 km/h
Temperature: 10°C
Wind Chill: 7°C
Dew Point: 8°C
Humidity: 88%
Barometer: 1027 hPa
Clouds: Overcast
Visibility: 6 miles , 10 km
Cloud details: Overcast 366 m
2018/05/23 06:50 EGXZ 230650Z 01010KT 9999 OVC012 10/08 Q1027 GRN
EGXD - Dishforth Raf, United Kingdom
Distance from station: SSW 29mi, 46km
Updated: 06/06/2016 10:50
NOT Current
Clear
Clear
 Wind from SSE
Wind: SSE 5 mph , 7 km/h
Temperature: 18°C
Dew Point: 11°C
Humidity: 64%
Barometer: 1023 hPa
Clouds: Clear
Visibility: 6 miles , 10 km
2016/06/06 09:50 EGXD 060950Z AUTO 16004KT 9999 // NCD 18/11 Q1023
 
EGXU - Linton-On-Ouse R, United Kingdom
Distance from station: S 33mi, 53km
Updated: 23/05/2018 07:50
Overcast
Overcast
 Wind from NNE
Wind: NNE 9 mph , 15 km/h
Temperature: 11°C
Dew Point: 7°C
Humidity: 77%
Barometer: 1027 hPa
Clouds: Overcast
Visibility: 6 miles , 10 km
Cloud details: Overcast 457 m
2018/05/23 06:50 EGXU 230650Z 03008KT 9999 OVC015 11/07 Q1027 WHT NOSIG
EGNT - Newcastle, United Kingdom
Distance from station: NNW 39mi, 63km
Updated: 23/05/2018 07:50
Mostly cloudy
Mostly cloudy
 Wind from NE
Wind: NE 8 mph , 13 km/h
Temperature: 9°C
Wind Chill: 7°C
Dew Point: 7°C
Humidity: 87%
Barometer: 1027 hPa
Clouds: Mostly cloudy
Visibility: 6 miles , 10 km
Cloud details: Mostly cloudy 305 m
2018/05/23 06:50 EGNT 230650Z 04007KT 010V070 9999 BKN010 09/07 Q1027
 
EGNM - Leeds And Bradfo, United Kingdom
Distance from station: SSW 49mi, 79km
Updated: 23/05/2018 07:50
Mostly cloudy
Mostly cloudy
 Wind from NNE
Wind: NNE 10 mph , 17 km/h
Temperature: 9°C
Wind Chill: 7°C
Dew Point: 7°C
Humidity: 87%
Barometer: 1026 hPa
Clouds: Mostly cloudy
Visibility: 6 miles , 10 km
Cloud details: Mostly cloudy 274 m
2018/05/23 06:50 EGNM 230650Z 02009KT 350V060 9999 BKN009 09/07 Q1026